Darmstadt, Indiana
Current Conditions -  °F | °C
As of 3:54 PM on Monday 20 Oct 2014 (Local Time) from KEVV Reporting Station
Clear Clear  
Wind Chill: 72°   Ceiling: Unl
Heat Index: 72°   Visibility: 10mi
Dew Point: 53°   Wind: 14mph
Humidity: 51%   Direction: 250°WSW
Pressure: 29.89"   Gusts: NA
Location:  38.1195°N, 87.5368°W
Report Text: KEVV 202054Z 25012KT 10SM CLR 22/12 A2989 RMK AO2 SLP120 T02220117 56015
Loading
Personal Weather Stations






























Interactive Weather Map
Tropical Storm Tracking
New forecast layout! Learn more

10-Day Weather Forecast

Advertisements
Track Severe Weather on mobile